Time;durP1;ratioP1;P1;durP2;ratioP2;P2;SDS_P1;SDS_P2;PMS_P1;PMS_P2;Temp;Humidity;BMP_temperature;BMP_pressure;BME280_temperature;BME280_humidity;BME280_pressure;Samples;Min_cycle;Max_cycle;Signal;HPM_P1;HPM_P2
2022/01/08 00:01:11;;;;;;;16.40;7.53;;;;;;;;;;4972270;28;20022;-73
2022/01/08 00:03:36;;;;;;;18.42;6.90;;;;;;;;;;4970187;28;20026;-73
2022/01/08 00:06:02;;;;;;;20.05;8.05;;;;;;;;;;4965416;28;20412;-73
2022/01/08 00:08:27;;;;;;;27.50;9.13;;;;;;;;;;4971962;28;20083;-73
2022/01/08 00:10:54;;;;;;;25.45;10.15;;;;;;;;;;4976138;28;20047;-73
2022/01/08 00:13:19;;;;;;;24.98;9.77;;;;;;;;;;4976232;28;20104;-73
2022/01/08 00:15:45;;;;;;;18.55;7.68;;;;;;;;;;4971625;28;20107;-73
2022/01/08 00:18:10;;;;;;;24.23;8.82;;;;;;;;;;4975033;28;20046;-73
2022/01/08 00:20:36;;;;;;;21.40;9.30;;;;;;;;;;4974985;28;20537;-73
2022/01/08 00:23:01;;;;;;;26.23;9.85;;;;;;;;;;4974293;28;20031;-73
2022/01/08 00:25:27;;;;;;;27.15;11.15;;;;;;;;;;4973329;28;20045;-73
2022/01/08 00:27:52;;;;;;;31.50;10.65;;;;;;;;;;4967881;28;20480;-73
2022/01/08 00:30:18;;;;;;;27.08;9.30;;;;;;;;;;4974352;28;20050;-73
2022/01/08 00:32:43;;;;;;;22.25;9.18;;;;;;;;;;4978124;28;20053;-73
2022/01/08 00:35:09;;;;;;;30.70;10.38;;;;;;;;;;4982846;28;20038;-73
2022/01/08 00:37:37;;;;;;;26.73;10.00;;;;;;;;;;4977170;28;20458;-74
2022/01/08 00:40:04;;;;;;;28.42;9.80;;;;;;;;;;4968688;28;20126;-73
2022/01/08 00:42:30;;;;;;;28.52;11.25;;;;;;;;;;4964759;28;20055;-73
2022/01/08 00:44:55;;;;;;;30.85;10.85;;;;;;;;;;4973167;28;20042;-73
2022/01/08 00:47:20;;;;;;;19.13;7.70;;;;;;;;;;4979621;28;20121;-73
2022/01/08 00:49:46;;;;;;;30.55;11.60;;;;;;;;;;4974419;28;20035;-73
2022/01/08 00:52:11;;;;;;;26.65;9.73;;;;;;;;;;4982708;28;20079;-73
2022/01/08 00:54:38;;;;;;;35.15;10.57;;;;;;;;;;4974686;28;20172;-73
2022/01/08 00:57:04;;;;;;;28.25;9.75;;;;;;;;;;4973581;28;20101;-73
2022/01/08 00:59:29;;;;;;;29.13;8.85;;;;;;;;;;4975589;28;20051;-73
2022/01/08 01:01:55;;;;;;;27.58;8.85;;;;;;;;;;4977803;28;20046;-73
2022/01/08 01:04:20;;;;;;;28.17;8.20;;;;;;;;;;4981264;28;20046;-73
2022/01/08 01:06:46;;;;;;;23.48;8.95;;;;;;;;;;4982598;28;20034;-73
2022/01/08 01:09:11;;;;;;;25.13;8.55;;;;;;;;;;4975279;28;20050;-74
2022/01/08 01:11:36;;;;;;;18.42;6.50;;;;;;;;;;4966497;28;20125;-73
2022/01/08 01:14:02;;;;;;;18.75;7.82;;;;;;;;;;4966248;28;20035;-73
2022/01/08 01:16:27;;;;;;;20.73;7.75;;;;;;;;;;4984239;28;20441;-73
2022/01/08 01:18:53;;;;;;;18.38;8.15;;;;;;;;;;4976749;28;20030;-73
2022/01/08 01:21:19;;;;;;;16.60;7.55;;;;;;;;;;4996312;28;20077;-73
2022/01/08 01:23:45;;;;;;;15.88;7.38;;;;;;;;;;4969564;28;20250;-74
2022/01/08 01:26:16;;;;;;;15.68;6.30;;;;;;;;;;4973916;28;20038;-73
2022/01/08 01:47:01;;;;;;;12.98;6.25;;;;;;;;;;4979174;28;20046;-73
2022/01/08 01:49:27;;;;;;;16.27;5.82;;;;;;;;;;4977040;28;20031;-73
2022/01/08 01:51:53;;;;;;;15.27;6.15;;;;;;;;;;4974643;28;20107;-73
2022/01/08 01:54:18;;;;;;;15.05;5.88;;;;;;;;;;4970516;28;20076;-73
2022/01/08 01:56:44;;;;;;;18.70;5.60;;;;;;;;;;4978381;28;20035;-73
2022/01/08 01:59:09;;;;;;;13.80;6.20;;;;;;;;;;4976125;28;20047;-73
2022/01/08 02:01:35;;;;;;;20.25;6.97;;;;;;;;;;4984192;28;20511;-74
2022/01/08 02:04:00;;;;;;;14.75;7.00;;;;;;;;;;4977596;28;20034;-74
2022/01/08 02:06:25;;;;;;;15.15;6.65;;;;;;;;;;4977265;28;20096;-73
2022/01/08 02:08:51;;;;;;;16.23;6.05;;;;;;;;;;4977519;28;20035;-73
2022/01/08 02:11:19;;;;;;;19.52;6.72;;;;;;;;;;4973096;28;20055;-74
2022/01/08 02:13:45;;;;;;;17.13;6.93;;;;;;;;;;4966977;28;20125;-73
2022/01/08 02:16:16;;;;;;;14.13;6.70;;;;;;;;;;4970252;28;20129;-73
2022/01/08 02:18:46;;;;;;;14.15;6.97;;;;;;;;;;4986040;28;20086;-73
2022/01/08 02:21:12;;;;;;;15.90;7.35;;;;;;;;;;4978982;28;20053;-74
2022/01/08 02:23:39;;;;;;;18.30;7.10;;;;;;;;;;4974609;28;20482;-73
2022/01/08 02:26:06;;;;;;;21.35;8.60;;;;;;;;;;4972089;28;20034;-73
2022/01/08 02:28:32;;;;;;;19.02;8.73;;;;;;;;;;4971986;28;20656;-73
2022/01/08 02:30:57;;;;;;;18.90;7.07;;;;;;;;;;4974251;28;20039;-73
2022/01/08 02:33:29;;;;;;;17.25;7.57;;;;;;;;;;4972795;28;20169;-73
2022/01/08 02:35:55;;;;;;;17.80;7.60;;;;;;;;;;4975747;28;20535;-73
2022/01/08 02:38:21;;;;;;;17.30;7.50;;;;;;;;;;4978537;28;20061;-73
2022/01/08 02:40:55;;;;;;;20.70;7.28;;;;;;;;;;4977077;28;20421;-73
2022/01/08 02:43:21;;;;;;;16.75;6.07;;;;;;;;;;4975354;28;20062;-73
2022/01/08 02:45:46;;;;;;;16.08;7.22;;;;;;;;;;4968987;28;20069;-73
2022/01/08 02:48:11;;;;;;;15.38;7.22;;;;;;;;;;4977909;28;20035;-73
2022/01/08 02:50:37;;;;;;;15.40;6.65;;;;;;;;;;4978328;28;20038;-73
2022/01/08 02:53:02;;;;;;;17.73;6.85;;;;;;;;;;4985345;28;20042;-74
2022/01/08 02:55:27;;;;;;;14.98;6.10;;;;;;;;;;4982832;28;20046;-73
2022/01/08 02:57:53;;;;;;;16.85;6.82;;;;;;;;;;4976895;28;20118;-73
2022/01/08 03:00:20;;;;;;;13.18;6.20;;;;;;;;;;4968119;28;20039;-73
2022/01/08 03:02:51;;;;;;;15.50;6.63;;;;;;;;;;4974952;28;20407;-73
2022/01/08 03:05:17;;;;;;;17.35;6.70;;;;;;;;;;4981071;28;20041;-73
2022/01/08 03:07:44;;;;;;;18.92;6.82;;;;;;;;;;5018833;28;20032;-73
2022/01/08 03:10:12;;;;;;;14.30;6.47;;;;;;;;;;4971339;28;20031;-73
2022/01/08 03:12:41;;;;;;;15.15;6.85;;;;;;;;;;4967277;28;20046;-73
2022/01/08 03:15:11;;;;;;;17.33;6.68;;;;;;;;;;4973989;28;20030;-73
2022/01/08 03:17:36;;;;;;;14.57;6.60;;;;;;;;;;4981410;28;20043;-74
2022/01/08 03:20:04;;;;;;;22.23;6.75;;;;;;;;;;4979568;28;20041;-73
2022/01/08 03:22:30;;;;;;;13.75;6.75;;;;;;;;;;4979551;28;20522;-73
2022/01/08 03:24:56;;;;;;;15.02;6.60;;;;;;;;;;4975071;28;20039;-73
2022/01/08 03:27:21;;;;;;;19.60;6.47;;;;;;;;;;4982366;28;20038;-73
2022/01/08 03:29:46;;;;;;;17.67;7.30;;;;;;;;;;4976606;28;20046;-73
2022/01/08 03:32:12;;;;;;;18.10;7.05;;;;;;;;;;4985347;28;20508;-73
2022/01/08 03:34:37;;;;;;;10.93;5.63;;;;;;;;;;4972306;28;20050;-73
2022/01/08 03:37:03;;;;;;;15.15;6.72;;;;;;;;;;4967196;28;20051;-73
2022/01/08 03:39:28;;;;;;;14.18;6.43;;;;;;;;;;4979316;28;20070;-73
2022/01/08 03:41:54;;;;;;;19.95;6.78;;;;;;;;;;4982919;28;20042;-74
2022/01/08 03:44:19;;;;;;;18.95;6.95;;;;;;;;;;4983049;28;20572;-73
2022/01/08 03:46:44;;;;;;;18.38;6.65;;;;;;;;;;4976714;28;20469;-73
2022/01/08 03:49:17;;;;;;;15.38;6.43;;;;;;;;;;4977609;28;20068;-73
2022/01/08 03:51:43;;;;;;;17.27;7.05;;;;;;;;;;4984386;28;20156;-73
2022/01/08 03:54:08;;;;;;;15.10;6.85;;;;;;;;;;4973123;28;20117;-73
2022/01/08 03:56:34;;;;;;;17.23;6.72;;;;;;;;;;4966531;28;20045;-73
2022/01/08 03:58:59;;;;;;;21.98;6.72;;;;;;;;;;4975983;28;20035;-73
2022/01/08 04:01:24;;;;;;;17.63;6.72;;;;;;;;;;4978863;28;20053;-73
2022/01/08 04:03:50;;;;;;;18.90;7.68;;;;;;;;;;4969658;28;20034;-73
2022/01/08 04:06:15;;;;;;;16.00;7.45;;;;;;;;;;4966543;28;20125;-73
2022/01/08 04:08:40;;;;;;;13.38;6.65;;;;;;;;;;4977462;28;20038;-73
2022/01/08 04:11:06;;;;;;;18.75;7.43;;;;;;;;;;4977647;28;20520;-73
2022/01/08 04:13:35;;;;;;;20.17;7.68;;;;;;;;;;4977548;28;20500;-74
2022/01/08 04:16:09;;;;;;;20.27;7.95;;;;;;;;;;4978542;28;20018;-73
2022/01/08 04:18:35;;;;;;;20.08;7.35;;;;;;;;;;4971606;28;20046;-73
2022/01/08 04:23:44;;;;;;;23.48;6.70;;;;;;;;;;4989572;28;20141;-73
2022/01/08 04:26:09;;;;;;;23.08;7.35;;;;;;;;;;4965043;28;20543;-73
2022/01/08 04:28:34;;;;;;;19.40;8.20;;;;;;;;;;4970751;28;20046;-73
2022/01/08 04:31:00;;;;;;;22.92;9.85;;;;;;;;;;4976371;28;20417;-73
2022/01/08 04:33:25;;;;;;;28.40;10.82;;;;;;;;;;4984151;28;20416;-73
2022/01/08 04:35:51;;;;;;;21.60;8.50;;;;;;;;;;4991347;28;20428;-73
2022/01/08 04:38:16;;;;;;;25.20;9.45;;;;;;;;;;5010886;28;20038;-73
2022/01/08 04:40:42;;;;;;;29.38;9.35;;;;;;;;;;4965869;28;20031;-73
2022/01/08 04:43:07;;;;;;;21.20;7.75;;;;;;;;;;4970722;28;20042;-73
2022/01/08 04:45:33;;;;;;;18.83;7.53;;;;;;;;;;4980767;28;20054;-73
2022/01/08 04:48:00;;;;;;;18.42;8.30;;;;;;;;;;4971749;28;20039;-73
2022/01/08 04:50:27;;;;;;;16.83;7.78;;;;;;;;;;4980153;28;20544;-74
2022/01/08 04:52:53;;;;;;;17.50;7.97;;;;;;;;;;4981657;28;20039;-73
2022/01/08 04:55:19;;;;;;;19.85;7.63;;;;;;;;;;4982449;28;20030;-74
2022/01/08 04:57:45;;;;;;;19.73;7.38;;;;;;;;;;4988810;28;20039;-73
2022/01/08 05:00:13;;;;;;;20.83;7.05;;;;;;;;;;4971183;28;20393;-73
2022/01/08 05:02:39;;;;;;;20.85;7.57;;;;;;;;;;4978803;28;20046;-73
2022/01/08 05:05:04;;;;;;;19.65;6.53;;;;;;;;;;4980233;28;20110;-73
2022/01/08 05:07:30;;;;;;;20.73;7.20;;;;;;;;;;4965365;28;20579;-73
2022/01/08 05:09:55;;;;;;;14.07;6.90;;;;;;;;;;4971176;28;20038;-73
2022/01/08 05:12:20;;;;;;;18.83;7.05;;;;;;;;;;4979693;28;20046;-73
2022/01/08 05:14:46;;;;;;;18.33;7.07;;;;;;;;;;4971611;28;20034;-74
2022/01/08 05:17:14;;;;;;;16.98;6.85;;;;;;;;;;4973329;28;20047;-73
2022/01/08 05:22:09;;;;;;;16.40;7.15;;;;;;;;;;4973872;28;20113;-73
2022/01/08 05:24:35;;;;;;;16.55;7.05;;;;;;;;;;4978211;28;20084;-73
2022/01/08 05:27:03;;;;;;;18.35;7.57;;;;;;;;;;4979815;28;20038;-73
2022/01/08 05:29:29;;;;;;;15.98;6.90;;;;;;;;;;4966949;28;20047;-73
2022/01/08 05:31:54;;;;;;;18.90;7.35;;;;;;;;;;4966725;28;20088;-73
2022/01/08 05:34:20;;;;;;;19.35;7.25;;;;;;;;;;4964962;28;20035;-74
2022/01/08 05:36:45;;;;;;;17.48;7.57;;;;;;;;;;4977283;28;20055;-73
2022/01/08 05:39:10;;;;;;;21.77;7.50;;;;;;;;;;4972096;28;20039;-73
2022/01/08 05:41:36;;;;;;;27.73;7.57;;;;;;;;;;4983757;28;20040;-73
2022/01/08 05:44:01;;;;;;;15.63;6.85;;;;;;;;;;4974744;28;20039;-73
2022/01/08 05:46:26;;;;;;;18.27;7.07;;;;;;;;;;4986782;28;20046;-73
2022/01/08 05:48:52;;;;;;;19.85;7.15;;;;;;;;;;4973472;28;20049;-73
2022/01/08 05:51:17;;;;;;;16.77;6.50;;;;;;;;;;4979841;28;20042;-73
2022/01/08 05:53:42;;;;;;;15.70;6.40;;;;;;;;;;4977923;28;20053;-73
2022/01/08 05:56:08;;;;;;;17.60;6.88;;;;;;;;;;4983435;28;20045;-73
2022/01/08 05:58:34;;;;;;;20.55;6.25;;;;;;;;;;4977247;28;20492;-73
2022/01/08 06:00:59;;;;;;;17.20;6.25;;;;;;;;;;4972341;28;20027;-73
2022/01/08 06:03:24;;;;;;;14.65;6.07;;;;;;;;;;4980186;28;20121;-73
2022/01/08 06:05:50;;;;;;;13.95;5.75;;;;;;;;;;4975288;28;20042;-73
2022/01/08 06:08:15;;;;;;;16.58;5.72;;;;;;;;;;4977028;28;20415;-73
2022/01/08 06:10:40;;;;;;;13.27;6.13;;;;;;;;;;4983139;28;20046;-73
2022/01/08 06:13:06;;;;;;;17.88;6.15;;;;;;;;;;4976768;28;20035;-73
2022/01/08 06:15:31;;;;;;;13.95;6.63;;;;;;;;;;4976710;28;20031;-73
2022/01/08 06:17:56;;;;;;;12.23;5.45;;;;;;;;;;4976373;28;20057;-73
2022/01/08 06:20:22;;;;;;;17.92;6.15;;;;;;;;;;4970870;28;20039;-73
2022/01/08 06:22:47;;;;;;;13.90;6.20;;;;;;;;;;4976340;28;20045;-73
2022/01/08 06:25:12;;;;;;;19.45;6.82;;;;;;;;;;4967065;28;20088;-73
2022/01/08 06:27:38;;;;;;;15.50;6.82;;;;;;;;;;4969422;28;20508;-73
2022/01/08 06:30:04;;;;;;;19.42;8.18;;;;;;;;;;4974186;28;20030;-73
2022/01/08 06:32:30;;;;;;;15.32;7.05;;;;;;;;;;4975865;28;20050;-73
2022/01/08 06:34:55;;;;;;;26.98;6.82;;;;;;;;;;4979587;28;20083;-73
2022/01/08 06:37:20;;;;;;;19.88;6.90;;;;;;;;;;4978856;28;20050;-73
2022/01/08 06:39:48;;;;;;;14.25;6.05;;;;;;;;;;4973712;28;20045;-73
2022/01/08 06:42:14;;;;;;;16.33;6.20;;;;;;;;;;4979387;28;20039;-74
2022/01/08 06:44:39;;;;;;;19.63;5.63;;;;;;;;;;4980144;28;20045;-74
2022/01/08 06:47:04;;;;;;;14.98;5.97;;;;;;;;;;4978041;28;20793;-74
2022/01/08 06:49:31;;;;;;;13.60;5.85;;;;;;;;;;4980556;28;20720;-72
2022/01/08 06:51:56;;;;;;;11.18;4.43;;;;;;;;;;4978776;28;20117;-70
2022/01/08 06:54:22;;;;;;;11.23;4.65;;;;;;;;;;4973688;28;20129;-74
2022/01/08 06:56:47;;;;;;;11.57;5.22;;;;;;;;;;4981135;28;20031;-73
2022/01/08 06:59:12;;;;;;;14.75;4.75;;;;;;;;;;4968902;28;20111;-73
2022/01/08 07:01:38;;;;;;;12.05;5.57;;;;;;;;;;4984390;28;20046;-73
2022/01/08 07:04:04;;;;;;;10.75;4.93;;;;;;;;;;4980807;28;20029;-73
2022/01/08 07:06:29;;;;;;;12.68;5.43;;;;;;;;;;4976868;28;20560;-73
2022/01/08 07:08:55;;;;;;;6.40;3.40;;;;;;;;;;4973573;28;20042;-73
2022/01/08 07:11:20;;;;;;;9.65;4.15;;;;;;;;;;4974202;28;20050;-73
2022/01/08 07:13:45;;;;;;;11.07;4.20;;;;;;;;;;4973486;28;20423;-73
2022/01/08 07:16:11;;;;;;;7.55;3.35;;;;;;;;;;4974052;28;20125;-73
2022/01/08 07:18:36;;;;;;;12.13;4.60;;;;;;;;;;4970162;28;20042;-73
2022/01/08 07:21:01;;;;;;;13.30;4.72;;;;;;;;;;4966086;28;20038;-74
2022/01/08 07:23:27;;;;;;;12.43;4.40;;;;;;;;;;4975882;28;20050;-73
2022/01/08 07:25:52;;;;;;;9.50;3.95;;;;;;;;;;4978158;28;20042;-73
2022/01/08 07:28:17;;;;;;;15.35;4.22;;;;;;;;;;4974233;28;20041;-73
2022/01/08 07:30:44;;;;;;;13.07;4.05;;;;;;;;;;4976022;28;20727;-73
2022/01/08 07:33:09;;;;;;;3.33;1.85;;;;;;;;;;4971196;28;20074;-73
2022/01/08 07:35:35;;;;;;;9.68;4.78;;;;;;;;;;4975769;28;20578;-73
2022/01/08 07:38:00;;;;;;;5.00;2.30;;;;;;;;;;4977341;28;20046;-73
2022/01/08 07:40:25;;;;;;;7.07;3.45;;;;;;;;;;4973591;28;20125;-73
2022/01/08 07:42:51;;;;;;;8.20;4.15;;;;;;;;;;4966522;28;20030;-74
2022/01/08 07:45:17;;;;;;;8.77;3.90;;;;;;;;;;4965248;28;20905;-73
2022/01/08 07:47:43;;;;;;;13.38;4.25;;;;;;;;;;4978035;28;20065;-73
2022/01/08 07:50:09;;;;;;;9.18;4.13;;;;;;;;;;4974517;28;20125;-73
2022/01/08 07:52:34;;;;;;;14.50;5.15;;;;;;;;;;4987436;28;20062;-73
2022/01/08 07:55:00;;;;;;;5.88;2.80;;;;;;;;;;4992255;28;20061;-73
2022/01/08 07:57:25;;;;;;;5.55;2.95;;;;;;;;;;4984110;28;20128;-73
2022/01/08 07:59:50;;;;;;;19.08;4.55;;;;;;;;;;4970829;28;20099;-75
2022/01/08 08:02:16;;;;;;;10.35;4.45;;;;;;;;;;4977207;28;20078;-73
2022/01/08 08:04:41;;;;;;;12.60;4.38;;;;;;;;;;4976717;28;20108;-73
2022/01/08 08:07:07;;;;;;;9.77;3.33;;;;;;;;;;4969950;28;20052;-73
2022/01/08 08:09:33;;;;;;;8.18;3.95;;;;;;;;;;4975437;28;20030;-73
2022/01/08 08:11:58;;;;;;;10.43;2.63;;;;;;;;;;4979561;28;20531;-73
2022/01/08 08:14:23;;;;;;;7.07;3.20;;;;;;;;;;4972026;28;20042;-73
2022/01/08 08:16:49;;;;;;;9.30;3.47;;;;;;;;;;4978179;28;20125;-73
2022/01/08 08:19:14;;;;;;;5.32;2.88;;;;;;;;;;4973294;28;20095;-69
2022/01/08 08:21:39;;;;;;;6.38;3.03;;;;;;;;;;4982382;28;20037;-74
2022/01/08 08:24:06;;;;;;;6.45;3.28;;;;;;;;;;4968098;28;20665;-71
2022/01/08 08:26:33;;;;;;;8.80;3.50;;;;;;;;;;4972091;28;20258;-72
2022/01/08 08:28:58;;;;;;;9.00;3.17;;;;;;;;;;4979000;28;20666;-74
2022/01/08 08:31:24;;;;;;;10.10;4.07;;;;;;;;;;4982299;28;20049;-73
2022/01/08 08:33:49;;;;;;;6.50;3.00;;;;;;;;;;4978506;28;20511;-72
2022/01/08 08:36:14;;;;;;;8.93;4.05;;;;;;;;;;4984199;28;20042;-72
2022/01/08 08:38:40;;;;;;;7.40;3.17;;;;;;;;;;4979865;28;20038;-70
2022/01/08 08:41:05;;;;;;;11.75;4.55;;;;;;;;;;4978635;28;20038;-70
2022/01/08 08:43:30;;;;;;;5.80;2.60;;;;;;;;;;4978007;28;20046;-69
2022/01/08 08:45:56;;;;;;;7.32;3.92;;;;;;;;;;4970733;28;20091;-73
2022/01/08 08:48:21;;;;;;;10.07;3.85;;;;;;;;;;4973204;28;20053;-71
2022/01/08 08:50:46;;;;;;;4.18;2.70;;;;;;;;;;4970360;28;20035;-71
2022/01/08 08:53:12;;;;;;;9.27;4.78;;;;;;;;;;4962819;28;20038;-74
2022/01/08 08:55:38;;;;;;;7.95;3.30;;;;;;;;;;4963606;28;20125;-70
2022/01/08 08:58:03;;;;;;;6.70;2.45;;;;;;;;;;4969246;28;20039;-70
2022/01/08 09:00:28;;;;;;;9.43;3.28;;;;;;;;;;4982537;28;20062;-74
2022/01/08 09:02:54;;;;;;;3.28;2.38;;;;;;;;;;4975066;28;20046;-74
2022/01/08 09:05:19;;;;;;;6.82;3.53;;;;;;;;;;4969277;28;20051;-75
2022/01/08 09:07:44;;;;;;;9.32;3.92;;;;;;;;;;4971572;28;20427;-76
2022/01/08 09:10:11;;;;;;;5.15;2.75;;;;;;;;;;4973868;28;20031;-76
2022/01/08 09:12:41;;;;;;;6.90;3.53;;;;;;;;;;4964418;28;20027;-76
2022/01/08 09:15:09;;;;;;;7.88;3.35;;;;;;;;;;4969539;28;20037;-73
2022/01/08 09:17:38;;;;;;;8.02;2.80;;;;;;;;;;4968994;28;20047;-71
2022/01/08 09:20:05;;;;;;;6.95;3.78;;;;;;;;;;4979877;28;20046;-74
2022/01/08 09:22:31;;;;;;;8.40;3.80;;;;;;;;;;4991139;28;20076;-70
2022/01/08 09:24:57;;;;;;;6.03;2.50;;;;;;;;;;4977984;28;20066;-70
2022/01/08 09:27:23;;;;;;;9.98;3.65;;;;;;;;;;4978981;28;20034;-70
2022/01/08 09:29:49;;;;;;;10.13;2.63;;;;;;;;;;4977408;28;20062;-70
2022/01/08 09:32:14;;;;;;;8.75;2.40;;;;;;;;;;4976204;28;20072;-70
2022/01/08 09:34:40;;;;;;;4.13;2.17;;;;;;;;;;4985874;28;20526;-70
2022/01/08 09:37:05;;;;;;;7.60;2.85;;;;;;;;;;4984077;28;20065;-70
2022/01/08 09:39:31;;;;;;;11.43;3.45;;;;;;;;;;4984826;28;20591;-70
2022/01/08 09:41:56;;;;;;;5.45;3.05;;;;;;;;;;4978341;28;20042;-70
2022/01/08 09:44:22;;;;;;;6.15;2.67;;;;;;;;;;4987316;28;20107;-70
2022/01/08 09:46:48;;;;;;;8.85;3.63;;;;;;;;;;4988118;28;20053;-72
2022/01/08 09:49:13;;;;;;;7.75;3.45;;;;;;;;;;4976400;28;20463;-71
2022/01/08 09:51:38;;;;;;;4.90;2.40;;;;;;;;;;5014421;28;20046;-71
2022/01/08 09:54:04;;;;;;;7.05;3.70;;;;;;;;;;4978509;28;20046;-73
2022/01/08 09:56:31;;;;;;;4.35;2.67;;;;;;;;;;4963466;28;20502;-73
2022/01/08 09:58:57;;;;;;;8.20;3.08;;;;;;;;;;4968892;28;20073;-74
2022/01/08 10:01:25;;;;;;;8.18;3.75;;;;;;;;;;4977071;28;20045;-74
2022/01/08 10:03:51;;;;;;;9.07;3.90;;;;;;;;;;4978052;28;20064;-75
2022/01/08 10:06:25;;;;;;;4.45;2.47;;;;;;;;;;4966069;28;20735;-74
2022/01/08 10:08:51;;;;;;;6.30;2.92;;;;;;;;;;4975803;28;20091;-74
2022/01/08 10:11:17;;;;;;;6.70;2.85;;;;;;;;;;4976854;28;20188;-74
2022/01/08 10:13:45;;;;;;;6.15;3.47;;;;;;;;;;4980536;28;20122;-74
2022/01/08 10:18:57;;;;;;;4.97;3.17;;;;;;;;;;4980353;28;20081;-76
2022/01/08 10:21:22;;;;;;;6.10;3.05;;;;;;;;;;4972794;28;20039;-76
2022/01/08 10:24:04;;;;;;;4.75;2.33;;;;;;;;;;4963782;28;20545;-76
2022/01/08 10:26:34;;;;;;;7.05;2.75;;;;;;;;;;4988198;28;20077;-75
2022/01/08 10:29:14;;;;;;;2.42;2.10;;;;;;;;;;4980487;28;20795;-75
2022/01/08 10:31:40;;;;;;;11.13;3.05;;;;;;;;;;4969240;28;20053;-76
2022/01/08 10:34:08;;;;;;;5.88;3.17;;;;;;;;;;4966646;28;20546;-74
2022/01/08 10:36:41;;;;;;;9.48;2.75;;;;;;;;;;4966403;28;20118;-74
2022/01/08 10:39:20;;;;;;;4.88;3.15;;;;;;;;;;4972981;28;20042;-72
2022/01/08 10:41:48;;;;;;;6.80;3.70;;;;;;;;;;4971326;28;20729;-75
2022/01/08 10:44:17;;;;;;;6.32;2.58;;;;;;;;;;4978619;28;20060;-72
2022/01/08 10:46:55;;;;;;;7.00;4.03;;;;;;;;;;4969321;28;20461;-71
2022/01/08 10:49:47;;;;;;;6.75;2.58;;;;;;;;;;4977173;28;20026;-73
2022/01/08 10:52:15;;;;;;;5.78;3.15;;;;;;;;;;4971325;28;20030;-73
2022/01/08 10:54:43;;;;;;;5.50;3.63;;;;;;;;;;4967309;28;20404;-75
2022/01/08 10:57:12;;;;;;;5.10;2.45;;;;;;;;;;4974553;28;20072;-76
2022/01/08 10:59:38;;;;;;;8.00;2.67;;;;;;;;;;4976298;28;20065;-76
2022/01/08 11:02:14;;;;;;;5.68;3.10;;;;;;;;;;4969844;28;20089;-76
2022/01/08 11:04:50;;;;;;;3.58;2.38;;;;;;;;;;4977791;28;20469;-73
2022/01/08 11:07:20;;;;;;;6.93;2.83;;;;;;;;;;4965049;28;20026;-73
2022/01/08 11:09:48;;;;;;;5.00;2.78;;;;;;;;;;4980898;28;20642;-74
2022/01/08 11:12:40;;;;;;;6.93;3.45;;;;;;;;;;4963870;28;20050;-75
2022/01/08 11:17:50;;;;;;;6.60;3.20;;;;;;;;;;4971185;28;20039;-74
2022/01/08 11:20:19;;;;;;;8.27;4.43;;;;;;;;;;4965546;28;20519;-75
2022/01/08 11:22:46;;;;;;;11.02;5.05;;;;;;;;;;4966105;28;20057;-74
2022/01/08 11:25:16;;;;;;;5.85;3.17;;;;;;;;;;4964840;28;20057;-73
2022/01/08 11:28:04;;;;;;;5.53;2.88;;;;;;;;;;4972997;28;20026;-75
2022/01/08 11:30:32;;;;;;;3.03;1.63;;;;;;;;;;4977595;28;20043;-74
2022/01/08 11:33:05;;;;;;;5.22;3.25;;;;;;;;;;4968613;28;20055;-75
2022/01/08 11:35:32;;;;;;;5.70;3.87;;;;;;;;;;4965157;28;20060;-74
2022/01/08 11:38:03;;;;;;;5.25;2.65;;;;;;;;;;4965710;28;20463;-75
2022/01/08 11:40:29;;;;;;;7.38;3.10;;;;;;;;;;4979269;28;20050;-74
2022/01/08 11:42:58;;;;;;;7.15;4.07;;;;;;;;;;4975067;28;20038;-75
2022/01/08 11:45:29;;;;;;;16.27;3.38;;;;;;;;;;4977365;28;20043;-75
2022/01/08 11:47:58;;;;;;;5.55;2.95;;;;;;;;;;4967060;28;20593;-75
2022/01/08 11:50:26;;;;;;;9.60;4.18;;;;;;;;;;4974551;28;20031;-74
2022/01/08 11:53:10;;;;;;;4.65;2.42;;;;;;;;;;4976325;28;20515;-74
2022/01/08 11:55:36;;;;;;;6.60;2.45;;;;;;;;;;4962862;28;20034;-75
2022/01/08 11:58:13;;;;;;;7.10;2.83;;;;;;;;;;4966860;28;20025;-75
2022/01/08 12:00:49;;;;;;;4.03;2.38;;;;;;;;;;4963622;28;20068;-74
2022/01/08 12:03:40;;;;;;;3.70;1.92;;;;;;;;;;4966632;28;20047;-75
2022/01/08 12:06:25;;;;;;;3.75;1.88;;;;;;;;;;4977762;28;20147;-74
2022/01/08 12:09:07;;;;;;;4.40;1.88;;;;;;;;;;4971206;28;20045;-74
2022/01/08 12:11:56;;;;;;;5.03;2.63;;;;;;;;;;4973554;28;20130;-74
2022/01/08 12:14:29;;;;;;;4.80;2.47;;;;;;;;;;4978724;28;20653;-74
2022/01/08 12:17:11;;;;;;;5.63;3.00;;;;;;;;;;4977128;28;20034;-74
2022/01/08 12:19:39;;;;;;;3.72;2.33;;;;;;;;;;4970983;28;20042;-74
2022/01/08 12:22:16;;;;;;;3.20;2.30;;;;;;;;;;4976090;28;20061;-73
2022/01/08 12:24:49;;;;;;;4.25;2.35;;;;;;;;;;4972095;28;20038;-72
2022/01/08 12:27:33;;;;;;;4.55;2.45;;;;;;;;;;4967096;28;20538;-73
2022/01/08 12:30:00;;;;;;;3.80;1.75;;;;;;;;;;4972829;28;20046;-73
2022/01/08 12:32:37;;;;;;;5.32;1.70;;;;;;;;;;4976257;28;20086;-73
2022/01/08 12:35:14;;;;;;;6.47;2.92;;;;;;;;;;4976804;28;20038;-73
2022/01/08 12:37:43;;;;;;;4.50;2.13;;;;;;;;;;4968561;28;20057;-73
2022/01/08 12:40:10;;;;;;;6.13;3.17;;;;;;;;;;4968381;28;20586;-73
2022/01/08 12:42:39;;;;;;;4.10;2.58;;;;;;;;;;4965326;28;20039;-73
2022/01/08 12:45:29;;;;;;;7.20;2.50;;;;;;;;;;4973378;28;20412;-73
2022/01/08 12:48:01;;;;;;;2.45;1.30;;;;;;;;;;4966997;28;20129;-73
2022/01/08 12:50:29;;;;;;;7.57;3.03;;;;;;;;;;4964486;28;20049;-73
2022/01/08 12:53:07;;;;;;;11.40;3.47;;;;;;;;;;4969813;28;20089;-73
2022/01/08 12:55:36;;;;;;;4.22;2.50;;;;;;;;;;4968147;28;20043;-73
2022/01/08 12:58:31;;;;;;;9.57;4.30;;;;;;;;;;4984944;28;20026;-73
2022/01/08 13:01:05;;;;;;;3.40;1.45;;;;;;;;;;4978026;28;20330;-73
2022/01/08 13:03:36;;;;;;;3.38;1.77;;;;;;;;;;4978667;28;20092;-73
2022/01/08 13:06:12;;;;;;;4.20;1.98;;;;;;;;;;4967466;28;20527;-73
2022/01/08 13:08:39;;;;;;;5.15;1.75;;;;;;;;;;4979595;28;20038;-73
2022/01/08 13:11:07;;;;;;;8.13;3.58;;;;;;;;;;4967469;28;20121;-73
2022/01/08 13:13:44;;;;;;;1.95;1.38;;;;;;;;;;4977643;28;20043;-73
2022/01/08 13:16:11;;;;;;;2.97;1.80;;;;;;;;;;4972392;28;20041;-73
2022/01/08 13:18:37;;;;;;;6.32;2.55;;;;;;;;;;4974628;28;20030;-73
2022/01/08 13:21:04;;;;;;;4.65;2.22;;;;;;;;;;4972362;28;20038;-73
2022/01/08 13:23:30;;;;;;;3.90;2.33;;;;;;;;;;4971523;28;20601;-73
2022/01/08 13:25:57;;;;;;;3.22;2.10;;;;;;;;;;4967343;28;20035;-73
2022/01/08 13:28:24;;;;;;;2.78;1.75;;;;;;;;;;4969750;28;20046;-73
2022/01/08 13:30:51;;;;;;;8.23;3.55;;;;;;;;;;4967166;28;20633;-73
2022/01/08 13:33:28;;;;;;;4.45;2.08;;;;;;;;;;4968664;28;20042;-73
2022/01/08 13:36:12;;;;;;;6.72;3.17;;;;;;;;;;4983800;28;20042;-73
2022/01/08 13:38:39;;;;;;;7.60;3.72;;;;;;;;;;4980581;28;20075;-73
2022/01/08 13:41:17;;;;;;;4.30;2.17;;;;;;;;;;4981037;28;20057;-73
2022/01/08 13:43:58;;;;;;;3.88;1.92;;;;;;;;;;4971159;28;20050;-72
2022/01/08 13:46:28;;;;;;;4.65;2.58;;;;;;;;;;4968567;28;20460;-73
2022/01/08 13:48:55;;;;;;;3.90;2.05;;;;;;;;;;4980121;28;20559;-73
2022/01/08 13:51:24;;;;;;;4.22;2.47;;;;;;;;;;4968737;28;20134;-73
2022/01/08 13:53:58;;;;;;;3.55;2.13;;;;;;;;;;4979807;28;20038;-73
2022/01/08 13:56:25;;;;;;;5.50;2.40;;;;;;;;;;4967000;28;20042;-73
2022/01/08 13:58:50;;;;;;;4.90;1.90;;;;;;;;;;4979363;28;20046;-73
2022/01/08 14:01:17;;;;;;;4.50;2.67;;;;;;;;;;4985708;28;20061;-73
2022/01/08 14:03:47;;;;;;;2.72;1.63;;;;;;;;;;4976188;28;20620;-73
2022/01/08 14:06:26;;;;;;;3.58;2.30;;;;;;;;;;4966958;28;20554;-73
2022/01/08 14:08:58;;;;;;;6.65;2.60;;;;;;;;;;4972266;28;20042;-73
2022/01/08 14:11:24;;;;;;;7.60;2.58;;;;;;;;;;4974387;28;20062;-74
2022/01/08 14:13:53;;;;;;;5.95;3.40;;;;;;;;;;4982010;28;20665;-73
2022/01/08 14:16:26;;;;;;;5.80;2.30;;;;;;;;;;4966664;28;20113;-72
2022/01/08 14:18:52;;;;;;;7.35;2.90;;;;;;;;;;4971836;28;20035;-73
2022/01/08 14:21:19;;;;;;;8.98;3.85;;;;;;;;;;4968974;28;20054;-73
2022/01/08 14:23:47;;;;;;;10.27;3.65;;;;;;;;;;4968310;28;20039;-73
2022/01/08 14:26:22;;;;;;;7.68;3.17;;;;;;;;;;4966052;28;20039;-73
2022/01/08 14:29:05;;;;;;;11.02;3.45;;;;;;;;;;4967756;28;20039;-73
2022/01/08 14:31:32;;;;;;;3.58;1.95;;;;;;;;;;4967310;28;20070;-73
2022/01/08 14:34:21;;;;;;;6.20;3.70;;;;;;;;;;4968487;28;20031;-73
2022/01/08 14:36:51;;;;;;;7.97;3.80;;;;;;;;;;4971699;28;20055;-73
2022/01/08 14:39:39;;;;;;;6.40;3.22;;;;;;;;;;4975367;28;20050;-73
2022/01/08 14:42:10;;;;;;;5.00;3.28;;;;;;;;;;4982303;28;20046;-73
2022/01/08 14:44:37;;;;;;;7.43;2.90;;;;;;;;;;4976047;28;20058;-73
2022/01/08 14:47:03;;;;;;;7.32;3.63;;;;;;;;;;4966940;28;20043;-73
2022/01/08 14:49:29;;;;;;;7.93;3.85;;;;;;;;;;4977140;28;20582;-73
2022/01/08 14:51:55;;;;;;;11.68;4.80;;;;;;;;;;4976749;28;20105;-73
2022/01/08 14:54:28;;;;;;;9.32;3.78;;;;;;;;;;4980151;28;20054;-73
2022/01/08 14:56:54;;;;;;;6.88;3.53;;;;;;;;;;4969337;28;20039;-73
2022/01/08 14:59:19;;;;;;;6.53;2.85;;;;;;;;;;4974383;28;20031;-72
2022/01/08 15:01:45;;;;;;;9.32;3.97;;;;;;;;;;4978390;28;20053;-73
2022/01/08 15:04:10;;;;;;;5.68;2.45;;;;;;;;;;4972996;28;20034;-73
2022/01/08 15:06:35;;;;;;;6.32;2.25;;;;;;;;;;4970052;28;20026;-73
2022/01/08 15:09:01;;;;;;;2.25;1.70;;;;;;;;;;4974561;28;20042;-73